sensor_id;sensor_type;location;lat;lon;timestamp;P1;durP1;ratioP1;P2;durP2;ratioP2
51194;SDS011;37259;49.972;19.850;2023-07-31T00:00:39;5.2;;;2.4;;
51194;SDS011;37259;49.972;19.850;2023-07-31T00:01:39;5.2;;;2.4;;
51194;SDS011;37259;49.972;19.850;2023-07-31T00:02:41;5.2;;;2.4;;
51194;SDS011;37259;49.972;19.850;2023-07-31T00:03:39;5.2;;;2.4;;
51194;SDS011;37259;49.972;19.850;2023-07-31T00:04:39;5.2;;;2.4;;
51194;SDS011;37259;49.972;19.850;2023-07-31T00:05:39;5.2;;;2.4;;
51194;SDS011;37259;49.972;19.850;2023-07-31T00:06:39;5.2;;;2.4;;
51194;SDS011;37259;49.972;19.850;2023-07-31T00:07:39;5.2;;;2.4;;
51194;SDS011;37259;49.972;19.850;2023-07-31T00:08:39;5.2;;;2.4;;
51194;SDS011;37259;49.972;19.850;2023-07-31T00:09:39;5.2;;;2.4;;
51194;SDS011;37259;49.972;19.850;2023-07-31T00:10:39;5.2;;;2.4;;
51194;SDS011;37259;49.972;19.850;2023-07-31T00:11:39;5.2;;;2.4;;
51194;SDS011;37259;49.972;19.850;2023-07-31T00:12:40;5.2;;;2.4;;
51194;SDS011;37259;49.972;19.850;2023-07-31T00:13:39;5.2;;;2.4;;
51194;SDS011;37259;49.972;19.850;2023-07-31T00:14:39;5.2;;;2.4;;
51194;SDS011;37259;49.972;19.850;2023-07-31T00:15:39;5.2;;;2.4;;
51194;SDS011;37259;49.972;19.850;2023-07-31T00:16:39;5.2;;;2.4;;
51194;SDS011;37259;49.972;19.850;2023-07-31T00:17:39;5.2;;;2.4;;
51194;SDS011;37259;49.972;19.850;2023-07-31T00:18:39;5.2;;;2.4;;
51194;SDS011;37259;49.972;19.850;2023-07-31T00:19:39;5.2;;;2.4;;
51194;SDS011;37259;49.972;19.850;2023-07-31T00:20:39;5.2;;;2.4;;
51194;SDS011;37259;49.972;19.850;2023-07-31T00:21:39;5.2;;;2.4;;
51194;SDS011;37259;49.972;19.850;2023-07-31T00:22:39;5.2;;;2.4;;
51194;SDS011;37259;49.972;19.850;2023-07-31T00:23:39;5.2;;;2.4;;
51194;SDS011;37259;49.972;19.850;2023-07-31T00:24:39;5.2;;;2.4;;
51194;SDS011;37259;49.972;19.850;2023-07-31T00:25:39;4.4;;;2.5;;
51194;SDS011;37259;49.972;19.850;2023-07-31T00:26:39;4.4;;;2.5;;
51194;SDS011;37259;49.972;19.850;2023-07-31T00:27:39;4.4;;;2.5;;
51194;SDS011;37259;49.972;19.850;2023-07-31T00:28:39;4.4;;;2.5;;
51194;SDS011;37259;49.972;19.850;2023-07-31T00:29:39;4.4;;;2.5;;
51194;SDS011;37259;49.972;19.850;2023-07-31T00:30:39;4.4;;;2.5;;
51194;SDS011;37259;49.972;19.850;2023-07-31T00:31:39;4.4;;;2.5;;
51194;SDS011;37259;49.972;19.850;2023-07-31T00:32:39;4.4;;;2.5;;
51194;SDS011;37259;49.972;19.850;2023-07-31T00:33:39;4.4;;;2.5;;
51194;SDS011;37259;49.972;19.850;2023-07-31T00:34:39;4.4;;;2.5;;
51194;SDS011;37259;49.972;19.850;2023-07-31T00:35:39;4.4;;;2.5;;
51194;SDS011;37259;49.972;19.850;2023-07-31T00:36:39;4.4;;;2.5;;
51194;SDS011;37259;49.972;19.850;2023-07-31T00:37:39;4.4;;;2.5;;
51194;SDS011;37259;49.972;19.850;2023-07-31T00:38:39;4.4;;;2.5;;
51194;SDS011;37259;49.972;19.850;2023-07-31T00:39:39;4.4;;;2.5;;
51194;SDS011;37259;49.972;19.850;2023-07-31T00:40:39;4.4;;;2.5;;
51194;SDS011;37259;49.972;19.850;2023-07-31T00:41:39;4.4;;;2.5;;
51194;SDS011;37259;49.972;19.850;2023-07-31T00:42:39;4.4;;;2.5;;
51194;SDS011;37259;49.972;19.850;2023-07-31T00:43:39;4.4;;;2.5;;
51194;SDS011;37259;49.972;19.850;2023-07-31T00:44:39;4.4;;;2.5;;
51194;SDS011;37259;49.972;19.850;2023-07-31T00:45:39;4.4;;;2.5;;
51194;SDS011;37259;49.972;19.850;2023-07-31T00:46:39;4.4;;;2.5;;
51194;SDS011;37259;49.972;19.850;2023-07-31T00:47:39;4.4;;;2.5;;
51194;SDS011;37259;49.972;19.850;2023-07-31T00:48:39;4.4;;;2.5;;
51194;SDS011;37259;49.972;19.850;2023-07-31T00:49:39;4.4;;;2.5;;
51194;SDS011;37259;49.972;19.850;2023-07-31T00:50:39;4.4;;;2.5;;
51194;SDS011;37259;49.972;19.850;2023-07-31T00:51:39;4.4;;;2.5;;
51194;SDS011;37259;49.972;19.850;2023-07-31T00:52:39;4.4;;;2.5;;
51194;SDS011;37259;49.972;19.850;2023-07-31T00:53:39;4.4;;;2.5;;
51194;SDS011;37259;49.972;19.850;2023-07-31T00:54:39;4.4;;;2.5;;
51194;SDS011;37259;49.972;19.850;2023-07-31T00:55:39;4.2;;;2.5;;
51194;SDS011;37259;49.972;19.850;2023-07-31T00:56:39;4.2;;;2.5;;
51194;SDS011;37259;49.972;19.850;2023-07-31T00:57:39;4.2;;;2.5;;
51194;SDS011;37259;49.972;19.850;2023-07-31T00:58:39;4.2;;;2.5;;
51194;SDS011;37259;49.972;19.850;2023-07-31T00:59:39;4.2;;;2.5;;
51194;SDS011;37259;49.972;19.850;2023-07-31T01:00:39;4.2;;;2.5;;
51194;SDS011;37259;49.972;19.850;2023-07-31T01:01:39;4.2;;;2.5;;
51194;SDS011;37259;49.972;19.850;2023-07-31T01:02:39;4.2;;;2.5;;
51194;SDS011;37259;49.972;19.850;2023-07-31T01:03:39;4.2;;;2.5;;
51194;SDS011;37259;49.972;19.850;2023-07-31T01:04:39;4.2;;;2.5;;
51194;SDS011;37259;49.972;19.850;2023-07-31T01:05:47;4.2;;;2.5;;
51194;SDS011;37259;49.972;19.850;2023-07-31T01:06:40;4.2;;;2.5;;
51194;SDS011;37259;49.972;19.850;2023-07-31T01:07:42;4.2;;;2.5;;
51194;SDS011;37259;49.972;19.850;2023-07-31T01:08:41;4.2;;;2.5;;
51194;SDS011;37259;49.972;19.850;2023-07-31T01:09:40;4.2;;;2.5;;
51194;SDS011;37259;49.972;19.850;2023-07-31T01:10:41;4.2;;;2.5;;
51194;SDS011;37259;49.972;19.850;2023-07-31T01:11:42;4.2;;;2.5;;
51194;SDS011;37259;49.972;19.850;2023-07-31T01:12:39;4.2;;;2.5;;
51194;SDS011;37259;49.972;19.850;2023-07-31T01:13:39;4.2;;;2.5;;
51194;SDS011;37259;49.972;19.850;2023-07-31T01:14:39;4.2;;;2.5;;
51194;SDS011;37259;49.972;19.850;2023-07-31T01:15:39;4.2;;;2.5;;
51194;SDS011;37259;49.972;19.850;2023-07-31T01:16:39;4.2;;;2.5;;
51194;SDS011;37259;49.972;19.850;2023-07-31T01:17:39;4.2;;;2.5;;
51194;SDS011;37259;49.972;19.850;2023-07-31T01:18:39;4.2;;;2.5;;
51194;SDS011;37259;49.972;19.850;2023-07-31T01:19:39;4.2;;;2.5;;
51194;SDS011;37259;49.972;19.850;2023-07-31T01:20:39;4.2;;;2.5;;
51194;SDS011;37259;49.972;19.850;2023-07-31T01:21:44;4.2;;;2.5;;
51194;SDS011;37259;49.972;19.850;2023-07-31T01:22:48;4.2;;;2.5;;
51194;SDS011;37259;49.972;19.850;2023-07-31T01:23:46;4.2;;;2.5;;
51194;SDS011;37259;49.972;19.850;2023-07-31T01:24:42;4.2;;;2.5;;
51194;SDS011;37259;49.972;19.850;2023-07-31T01:25:45;4.7;;;2.5;;
51194;SDS011;37259;49.972;19.850;2023-07-31T01:26:39;4.7;;;2.5;;
51194;SDS011;37259;49.972;19.850;2023-07-31T01:27:40;4.7;;;2.5;;
51194;SDS011;37259;49.972;19.850;2023-07-31T01:28:45;4.7;;;2.5;;
51194;SDS011;37259;49.972;19.850;2023-07-31T01:29:42;4.7;;;2.5;;
51194;SDS011;37259;49.972;19.850;2023-07-31T01:30:41;4.7;;;2.5;;
51194;SDS011;37259;49.972;19.850;2023-07-31T01:31:39;4.7;;;2.5;;
51194;SDS011;37259;49.972;19.850;2023-07-31T01:32:39;4.7;;;2.5;;
51194;SDS011;37259;49.972;19.850;2023-07-31T01:33:39;4.7;;;2.5;;
51194;SDS011;37259;49.972;19.850;2023-07-31T01:34:39;4.7;;;2.5;;
51194;SDS011;37259;49.972;19.850;2023-07-31T01:35:39;4.7;;;2.5;;
51194;SDS011;37259;49.972;19.850;2023-07-31T01:36:39;4.7;;;2.5;;
51194;SDS011;37259;49.972;19.850;2023-07-31T01:37:39;4.7;;;2.5;;
51194;SDS011;37259;49.972;19.850;2023-07-31T01:38:39;4.7;;;2.5;;
51194;SDS011;37259;49.972;19.850;2023-07-31T01:39:39;4.7;;;2.5;;
51194;SDS011;37259;49.972;19.850;2023-07-31T01:40:41;4.7;;;2.5;;
51194;SDS011;37259;49.972;19.850;2023-07-31T01:41:39;4.7;;;2.5;;
51194;SDS011;37259;49.972;19.850;2023-07-31T01:42:39;4.7;;;2.5;;
51194;SDS011;37259;49.972;19.850;2023-07-31T01:43:39;4.7;;;2.5;;
51194;SDS011;37259;49.972;19.850;2023-07-31T01:44:39;4.7;;;2.5;;
51194;SDS011;37259;49.972;19.850;2023-07-31T01:45:39;4.7;;;2.5;;
51194;SDS011;37259;49.972;19.850;2023-07-31T01:46:39;4.7;;;2.5;;
51194;SDS011;37259;49.972;19.850;2023-07-31T01:47:39;4.7;;;2.5;;
51194;SDS011;37259;49.972;19.850;2023-07-31T01:48:39;4.7;;;2.5;;
51194;SDS011;37259;49.972;19.850;2023-07-31T01:49:39;4.7;;;2.5;;
51194;SDS011;37259;49.972;19.850;2023-07-31T01:50:39;4.7;;;2.5;;
51194;SDS011;37259;49.972;19.850;2023-07-31T01:51:39;4.7;;;2.5;;
51194;SDS011;37259;49.972;19.850;2023-07-31T01:52:39;4.7;;;2.5;;
51194;SDS011;37259;49.972;19.850;2023-07-31T01:53:39;4.7;;;2.5;;
51194;SDS011;37259;49.972;19.850;2023-07-31T01:54:39;4.7;;;2.5;;
51194;SDS011;37259;49.972;19.850;2023-07-31T01:55:39;8.2;;;3.8;;
51194;SDS011;37259;49.972;19.850;2023-07-31T01:56:39;8.2;;;3.8;;
51194;SDS011;37259;49.972;19.850;2023-07-31T01:57:39;8.2;;;3.8;;
51194;SDS011;37259;49.972;19.850;2023-07-31T01:58:39;8.2;;;3.8;;
51194;SDS011;37259;49.972;19.850;2023-07-31T01:59:39;8.2;;;3.8;;
51194;SDS011;37259;49.972;19.850;2023-07-31T02:00:39;8.2;;;3.8;;
51194;SDS011;37259;49.972;19.850;2023-07-31T02:01:39;8.2;;;3.8;;
51194;SDS011;37259;49.972;19.850;2023-07-31T02:02:39;8.2;;;3.8;;
51194;SDS011;37259;49.972;19.850;2023-07-31T02:03:39;8.2;;;3.8;;
51194;SDS011;37259;49.972;19.850;2023-07-31T02:04:39;8.2;;;3.8;;
51194;SDS011;37259;49.972;19.850;2023-07-31T02:05:43;8.2;;;3.8;;
51194;SDS011;37259;49.972;19.850;2023-07-31T02:06:39;8.2;;;3.8;;
51194;SDS011;37259;49.972;19.850;2023-07-31T02:07:39;8.2;;;3.8;;
51194;SDS011;37259;49.972;19.850;2023-07-31T02:08:39;8.2;;;3.8;;
51194;SDS011;37259;49.972;19.850;2023-07-31T02:09:39;8.2;;;3.8;;
51194;SDS011;37259;49.972;19.850;2023-07-31T02:10:39;8.2;;;3.8;;
51194;SDS011;37259;49.972;19.850;2023-07-31T02:11:39;8.2;;;3.8;;
51194;SDS011;37259;49.972;19.850;2023-07-31T02:12:39;8.2;;;3.8;;
51194;SDS011;37259;49.972;19.850;2023-07-31T02:13:39;8.2;;;3.8;;
51194;SDS011;37259;49.972;19.850;2023-07-31T02:14:39;8.2;;;3.8;;
51194;SDS011;37259;49.972;19.850;2023-07-31T02:15:39;8.2;;;3.8;;
51194;SDS011;37259;49.972;19.850;2023-07-31T02:16:39;8.2;;;3.8;;
51194;SDS011;37259;49.972;19.850;2023-07-31T02:17:39;8.2;;;3.8;;
51194;SDS011;37259;49.972;19.850;2023-07-31T02:18:39;8.2;;;3.8;;
51194;SDS011;37259;49.972;19.850;2023-07-31T02:19:39;8.2;;;3.8;;
51194;SDS011;37259;49.972;19.850;2023-07-31T02:20:39;8.2;;;3.8;;
51194;SDS011;37259;49.972;19.850;2023-07-31T02:21:39;8.2;;;3.8;;
51194;SDS011;37259;49.972;19.850;2023-07-31T02:22:39;8.2;;;3.8;;
51194;SDS011;37259;49.972;19.850;2023-07-31T02:23:39;8.2;;;3.8;;
51194;SDS011;37259;49.972;19.850;2023-07-31T02:24:39;8.2;;;3.8;;
51194;SDS011;37259;49.972;19.850;2023-07-31T02:25:39;6.3;;;3.4;;
51194;SDS011;37259;49.972;19.850;2023-07-31T02:26:39;6.3;;;3.4;;
51194;SDS011;37259;49.972;19.850;2023-07-31T02:27:39;6.3;;;3.4;;
51194;SDS011;37259;49.972;19.850;2023-07-31T02:28:39;6.3;;;3.4;;
51194;SDS011;37259;49.972;19.850;2023-07-31T02:29:39;6.3;;;3.4;;
51194;SDS011;37259;49.972;19.850;2023-07-31T02:30:39;6.3;;;3.4;;
51194;SDS011;37259;49.972;19.850;2023-07-31T02:31:39;6.3;;;3.4;;
51194;SDS011;37259;49.972;19.850;2023-07-31T02:32:39;6.3;;;3.4;;
51194;SDS011;37259;49.972;19.850;2023-07-31T02:33:39;6.3;;;3.4;;
51194;SDS011;37259;49.972;19.850;2023-07-31T02:34:39;6.3;;;3.4;;
51194;SDS011;37259;49.972;19.850;2023-07-31T02:35:39;6.3;;;3.4;;
51194;SDS011;37259;49.972;19.850;2023-07-31T02:36:39;6.3;;;3.4;;
51194;SDS011;37259;49.972;19.850;2023-07-31T02:37:39;6.3;;;3.4;;
51194;SDS011;37259;49.972;19.850;2023-07-31T02:38:39;6.3;;;3.4;;
51194;SDS011;37259;49.972;19.850;2023-07-31T02:39:39;6.3;;;3.4;;
51194;SDS011;37259;49.972;19.850;2023-07-31T02:40:39;6.3;;;3.4;;
51194;SDS011;37259;49.972;19.850;2023-07-31T02:41:39;6.3;;;3.4;;
51194;SDS011;37259;49.972;19.850;2023-07-31T02:42:39;6.3;;;3.4;;
51194;SDS011;37259;49.972;19.850;2023-07-31T02:43:39;6.3;;;3.4;;
51194;SDS011;37259;49.972;19.850;2023-07-31T02:44:39;6.3;;;3.4;;
51194;SDS011;37259;49.972;19.850;2023-07-31T02:45:39;6.3;;;3.4;;
51194;SDS011;37259;49.972;19.850;2023-07-31T02:46:39;6.3;;;3.4;;
51194;SDS011;37259;49.972;19.850;2023-07-31T02:47:39;6.3;;;3.4;;
51194;SDS011;37259;49.972;19.850;2023-07-31T02:48:39;6.3;;;3.4;;
51194;SDS011;37259;49.972;19.850;2023-07-31T02:49:39;6.3;;;3.4;;
51194;SDS011;37259;49.972;19.850;2023-07-31T02:50:39;6.3;;;3.4;;
51194;SDS011;37259;49.972;19.850;2023-07-31T02:51:39;6.3;;;3.4;;
51194;SDS011;37259;49.972;19.850;2023-07-31T02:52:39;6.3;;;3.4;;
51194;SDS011;37259;49.972;19.850;2023-07-31T02:53:39;6.3;;;3.4;;
51194;SDS011;37259;49.972;19.850;2023-07-31T02:54:39;6.3;;;3.4;;
51194;SDS011;37259;49.972;19.850;2023-07-31T02:55:40;6.7;;;3;;
51194;SDS011;37259;49.972;19.850;2023-07-31T02:56:39;6.7;;;3;;
51194;SDS011;37259;49.972;19.850;2023-07-31T02:57:39;6.7;;;3;;
51194;SDS011;37259;49.972;19.850;2023-07-31T02:58:39;6.7;;;3;;
51194;SDS011;37259;49.972;19.850;2023-07-31T02:59:39;6.7;;;3;;
51194;SDS011;37259;49.972;19.850;2023-07-31T03:00:41;6.7;;;3;;
51194;SDS011;37259;49.972;19.850;2023-07-31T03:01:39;6.7;;;3;;
51194;SDS011;37259;49.972;19.850;2023-07-31T03:02:39;6.7;;;3;;
51194;SDS011;37259;49.972;19.850;2023-07-31T03:03:40;6.7;;;3;;
51194;SDS011;37259;49.972;19.850;2023-07-31T03:04:39;6.7;;;3;;
51194;SDS011;37259;49.972;19.850;2023-07-31T03:05:39;6.7;;;3;;
51194;SDS011;37259;49.972;19.850;2023-07-31T03:06:39;6.7;;;3;;
51194;SDS011;37259;49.972;19.850;2023-07-31T03:07:39;6.7;;;3;;
51194;SDS011;37259;49.972;19.850;2023-07-31T03:08:39;6.7;;;3;;
51194;SDS011;37259;49.972;19.850;2023-07-31T03:09:39;6.7;;;3;;
51194;SDS011;37259;49.972;19.850;2023-07-31T03:10:39;6.7;;;3;;
51194;SDS011;37259;49.972;19.850;2023-07-31T03:11:39;6.7;;;3;;
51194;SDS011;37259;49.972;19.850;2023-07-31T03:12:39;6.7;;;3;;
51194;SDS011;37259;49.972;19.850;2023-07-31T03:13:39;6.7;;;3;;
51194;SDS011;37259;49.972;19.850;2023-07-31T03:14:39;6.7;;;3;;
51194;SDS011;37259;49.972;19.850;2023-07-31T03:15:41;6.7;;;3;;
51194;SDS011;37259;49.972;19.850;2023-07-31T03:16:39;6.7;;;3;;
51194;SDS011;37259;49.972;19.850;2023-07-31T03:17:39;6.7;;;3;;
51194;SDS011;37259;49.972;19.850;2023-07-31T03:18:39;6.7;;;3;;
51194;SDS011;37259;49.972;19.850;2023-07-31T03:19:39;6.7;;;3;;
51194;SDS011;37259;49.972;19.850;2023-07-31T03:20:41;6.7;;;3;;
51194;SDS011;37259;49.972;19.850;2023-07-31T03:21:39;6.7;;;3;;
51194;SDS011;37259;49.972;19.850;2023-07-31T03:22:39;6.7;;;3;;
51194;SDS011;37259;49.972;19.850;2023-07-31T03:23:39;6.7;;;3;;
51194;SDS011;37259;49.972;19.850;2023-07-31T03:24:39;6.7;;;3;;
51194;SDS011;37259;49.972;19.850;2023-07-31T03:25:41;5.3;;;2.6;;
51194;SDS011;37259;49.972;19.850;2023-07-31T03:26:39;5.3;;;2.6;;
51194;SDS011;37259;49.972;19.850;2023-07-31T03:27:39;5.3;;;2.6;;
51194;SDS011;37259;49.972;19.850;2023-07-31T03:28:39;5.3;;;2.6;;
51194;SDS011;37259;49.972;19.850;2023-07-31T03:29:39;5.3;;;2.6;;
51194;SDS011;37259;49.972;19.850;2023-07-31T03:30:40;5.3;;;2.6;;
51194;SDS011;37259;49.972;19.850;2023-07-31T03:31:39;5.3;;;2.6;;
51194;SDS011;37259;49.972;19.850;2023-07-31T03:32:40;5.3;;;2.6;;
51194;SDS011;37259;49.972;19.850;2023-07-31T03:33:39;5.3;;;2.6;;
51194;SDS011;37259;49.972;19.850;2023-07-31T03:34:39;5.3;;;2.6;;
51194;SDS011;37259;49.972;19.850;2023-07-31T03:35:39;5.3;;;2.6;;
51194;SDS011;37259;49.972;19.850;2023-07-31T03:36:39;5.3;;;2.6;;
51194;SDS011;37259;49.972;19.850;2023-07-31T03:37:39;5.3;;;2.6;;
51194;SDS011;37259;49.972;19.850;2023-07-31T03:38:39;5.3;;;2.6;;
51194;SDS011;37259;49.972;19.850;2023-07-31T03:39:39;5.3;;;2.6;;
51194;SDS011;37259;49.972;19.850;2023-07-31T03:40:39;5.3;;;2.6;;
51194;SDS011;37259;49.972;19.850;2023-07-31T03:41:39;5.3;;;2.6;;
51194;SDS011;37259;49.972;19.850;2023-07-31T03:42:39;5.3;;;2.6;;
51194;SDS011;37259;49.972;19.850;2023-07-31T03:43:39;5.3;;;2.6;;
51194;SDS011;37259;49.972;19.850;2023-07-31T03:44:39;5.3;;;2.6;;
51194;SDS011;37259;49.972;19.850;2023-07-31T03:45:39;5.3;;;2.6;;
51194;SDS011;37259;49.972;19.850;2023-07-31T03:46:39;5.3;;;2.6;;
51194;SDS011;37259;49.972;19.850;2023-07-31T03:47:39;5.3;;;2.6;;
51194;SDS011;37259;49.972;19.850;2023-07-31T03:48:39;5.3;;;2.6;;
51194;SDS011;37259;49.972;19.850;2023-07-31T03:49:39;5.3;;;2.6;;
51194;SDS011;37259;49.972;19.850;2023-07-31T03:50:39;5.3;;;2.6;;
51194;SDS011;37259;49.972;19.850;2023-07-31T03:51:39;5.3;;;2.6;;
51194;SDS011;37259;49.972;19.850;2023-07-31T03:52:40;5.3;;;2.6;;
51194;SDS011;37259;49.972;19.850;2023-07-31T03:53:39;5.3;;;2.6;;
51194;SDS011;37259;49.972;19.850;2023-07-31T03:54:39;5.3;;;2.6;;
51194;SDS011;37259;49.972;19.850;2023-07-31T03:55:39;4.5;;;2.5;;
51194;SDS011;37259;49.972;19.850;2023-07-31T03:56:39;4.5;;;2.5;;
51194;SDS011;37259;49.972;19.850;2023-07-31T03:57:39;4.5;;;2.5;;
51194;SDS011;37259;49.972;19.850;2023-07-31T03:58:39;4.5;;;2.5;;
51194;SDS011;37259;49.972;19.850;2023-07-31T03:59:39;4.5;;;2.5;;
51194;SDS011;37259;49.972;19.850;2023-07-31T04:00:39;4.5;;;2.5;;
51194;SDS011;37259;49.972;19.850;2023-07-31T04:01:39;4.5;;;2.5;;
51194;SDS011;37259;49.972;19.850;2023-07-31T04:02:39;4.5;;;2.5;;
51194;SDS011;37259;49.972;19.850;2023-07-31T04:03:39;4.5;;;2.5;;
51194;SDS011;37259;49.972;19.850;2023-07-31T04:04:39;4.5;;;2.5;;
51194;SDS011;37259;49.972;19.850;2023-07-31T04:05:39;4.5;;;2.5;;
51194;SDS011;37259;49.972;19.850;2023-07-31T04:06:39;4.5;;;2.5;;
51194;SDS011;37259;49.972;19.850;2023-07-31T04:07:39;4.5;;;2.5;;
51194;SDS011;37259;49.972;19.850;2023-07-31T04:08:39;4.5;;;2.5;;
51194;SDS011;37259;49.972;19.850;2023-07-31T04:09:39;4.5;;;2.5;;
51194;SDS011;37259;49.972;19.850;2023-07-31T04:10:39;4.5;;;2.5;;
51194;SDS011;37259;49.972;19.850;2023-07-31T04:11:39;4.5;;;2.5;;
51194;SDS011;37259;49.972;19.850;2023-07-31T04:12:39;4.5;;;2.5;;
51194;SDS011;37259;49.972;19.850;2023-07-31T04:13:39;4.5;;;2.5;;
51194;SDS011;37259;49.972;19.850;2023-07-31T04:14:39;4.5;;;2.5;;
51194;SDS011;37259;49.972;19.850;2023-07-31T04:15:39;4.5;;;2.5;;
51194;SDS011;37259;49.972;19.850;2023-07-31T04:16:39;4.5;;;2.5;;
51194;SDS011;37259;49.972;19.850;2023-07-31T04:17:39;4.5;;;2.5;;
51194;SDS011;37259;49.972;19.850;2023-07-31T04:18:39;4.5;;;2.5;;
51194;SDS011;37259;49.972;19.850;2023-07-31T04:19:39;4.5;;;2.5;;
51194;SDS011;37259;49.972;19.850;2023-07-31T04:20:39;4.5;;;2.5;;
51194;SDS011;37259;49.972;19.850;2023-07-31T04:21:39;4.5;;;2.5;;
51194;SDS011;37259;49.972;19.850;2023-07-31T04:22:39;4.5;;;2.5;;
51194;SDS011;37259;49.972;19.850;2023-07-31T04:23:39;4.5;;;2.5;;
51194;SDS011;37259;49.972;19.850;2023-07-31T04:24:39;4.5;;;2.5;;
51194;SDS011;37259;49.972;19.850;2023-07-31T04:25:39;5.2;;;2.6;;
51194;SDS011;37259;49.972;19.850;2023-07-31T04:26:39;5.2;;;2.6;;
51194;SDS011;37259;49.972;19.850;2023-07-31T04:27:39;5.2;;;2.6;;
51194;SDS011;37259;49.972;19.850;2023-07-31T04:28:39;5.2;;;2.6;;
51194;SDS011;37259;49.972;19.850;2023-07-31T04:29:39;5.2;;;2.6;;
51194;SDS011;37259;49.972;19.850;2023-07-31T04:30:39;5.2;;;2.6;;
51194;SDS011;37259;49.972;19.850;2023-07-31T04:31:39;5.2;;;2.6;;
51194;SDS011;37259;49.972;19.850;2023-07-31T04:32:39;5.2;;;2.6;;
51194;SDS011;37259;49.972;19.850;2023-07-31T04:33:39;5.2;;;2.6;;
51194;SDS011;37259;49.972;19.850;2023-07-31T04:34:39;5.2;;;2.6;;
51194;SDS011;37259;49.972;19.850;2023-07-31T04:35:39;5.2;;;2.6;;
51194;SDS011;37259;49.972;19.850;2023-07-31T04:36:39;5.2;;;2.6;;
51194;SDS011;37259;49.972;19.850;2023-07-31T04:37:39;5.2;;;2.6;;
51194;SDS011;37259;49.972;19.850;2023-07-31T04:38:39;5.2;;;2.6;;
51194;SDS011;37259;49.972;19.850;2023-07-31T04:39:39;5.2;;;2.6;;
51194;SDS011;37259;49.972;19.850;2023-07-31T04:40:39;5.2;;;2.6;;
51194;SDS011;37259;49.972;19.850;2023-07-31T04:41:39;5.2;;;2.6;;
51194;SDS011;37259;49.972;19.850;2023-07-31T04:42:39;5.2;;;2.6;;
51194;SDS011;37259;49.972;19.850;2023-07-31T04:43:39;5.2;;;2.6;;
51194;SDS011;37259;49.972;19.850;2023-07-31T04:44:39;5.2;;;2.6;;
51194;SDS011;37259;49.972;19.850;2023-07-31T04:45:41;5.2;;;2.6;;
51194;SDS011;37259;49.972;19.850;2023-07-31T04:46:39;5.2;;;2.6;;
51194;SDS011;37259;49.972;19.850;2023-07-31T04:47:39;5.2;;;2.6;;
51194;SDS011;37259;49.972;19.850;2023-07-31T04:48:39;5.2;;;2.6;;
51194;SDS011;37259;49.972;19.850;2023-07-31T04:49:39;5.2;;;2.6;;
51194;SDS011;37259;49.972;19.850;2023-07-31T04:50:39;5.2;;;2.6;;
51194;SDS011;37259;49.972;19.850;2023-07-31T04:51:39;5.2;;;2.6;;
51194;SDS011;37259;49.972;19.850;2023-07-31T04:52:39;5.2;;;2.6;;
51194;SDS011;37259;49.972;19.850;2023-07-31T04:53:39;5.2;;;2.6;;
51194;SDS011;37259;49.972;19.850;2023-07-31T04:54:39;5.2;;;2.6;;
51194;SDS011;37259;49.972;19.850;2023-07-31T04:55:39;6.6;;;3.3;;
51194;SDS011;37259;49.972;19.850;2023-07-31T04:56:39;6.6;;;3.3;;
51194;SDS011;37259;49.972;19.850;2023-07-31T04:57:39;6.6;;;3.3;;
51194;SDS011;37259;49.972;19.850;2023-07-31T04:58:39;6.6;;;3.3;;
51194;SDS011;37259;49.972;19.850;2023-07-31T04:59:39;6.6;;;3.3;;
51194;SDS011;37259;49.972;19.850;2023-07-31T05:00:39;6.6;;;3.3;;
51194;SDS011;37259;49.972;19.850;2023-07-31T05:01:39;6.6;;;3.3;;
51194;SDS011;37259;49.972;19.850;2023-07-31T05:02:39;6.6;;;3.3;;
51194;SDS011;37259;49.972;19.850;2023-07-31T05:03:39;6.6;;;3.3;;
51194;SDS011;37259;49.972;19.850;2023-07-31T05:04:39;6.6;;;3.3;;
51194;SDS011;37259;49.972;19.850;2023-07-31T05:05:39;6.6;;;3.3;;
51194;SDS011;37259;49.972;19.850;2023-07-31T05:06:39;6.6;;;3.3;;
51194;SDS011;37259;49.972;19.850;2023-07-31T05:07:39;6.6;;;3.3;;
51194;SDS011;37259;49.972;19.850;2023-07-31T05:08:39;6.6;;;3.3;;
51194;SDS011;37259;49.972;19.850;2023-07-31T05:09:39;6.6;;;3.3;;
51194;SDS011;37259;49.972;19.850;2023-07-31T05:10:39;6.6;;;3.3;;
51194;SDS011;37259;49.972;19.850;2023-07-31T05:11:39;6.6;;;3.3;;
51194;SDS011;37259;49.972;19.850;2023-07-31T05:12:39;6.6;;;3.3;;
51194;SDS011;37259;49.972;19.850;2023-07-31T05:13:39;6.6;;;3.3;;
51194;SDS011;37259;49.972;19.850;2023-07-31T05:14:39;6.6;;;3.3;;
51194;SDS011;37259;49.972;19.850;2023-07-31T05:15:40;6.6;;;3.3;;
51194;SDS011;37259;49.972;19.850;2023-07-31T05:16:39;6.6;;;3.3;;
51194;SDS011;37259;49.972;19.850;2023-07-31T05:17:39;6.6;;;3.3;;
51194;SDS011;37259;49.972;19.850;2023-07-31T05:18:39;6.6;;;3.3;;
51194;SDS011;37259;49.972;19.850;2023-07-31T05:19:39;6.6;;;3.3;;
51194;SDS011;37259;49.972;19.850;2023-07-31T05:20:39;6.6;;;3.3;;
51194;SDS011;37259;49.972;19.850;2023-07-31T05:21:39;6.6;;;3.3;;
51194;SDS011;37259;49.972;19.850;2023-07-31T05:22:39;6.6;;;3.3;;
51194;SDS011;37259;49.972;19.850;2023-07-31T05:23:39;6.6;;;3.3;;
51194;SDS011;37259;49.972;19.850;2023-07-31T05:24:39;6.6;;;3.3;;
51194;SDS011;37259;49.972;19.850;2023-07-31T05:25:39;6.7;;;3.4;;
51194;SDS011;37259;49.972;19.850;2023-07-31T05:26:39;6.7;;;3.4;;
51194;SDS011;37259;49.972;19.850;2023-07-31T05:27:39;6.7;;;3.4;;
51194;SDS011;37259;49.972;19.850;2023-07-31T05:28:39;6.7;;;3.4;;
51194;SDS011;37259;49.972;19.850;2023-07-31T05:29:40;6.7;;;3.4;;
51194;SDS011;37259;49.972;19.850;2023-07-31T05:30:39;6.7;;;3.4;;
51194;SDS011;37259;49.972;19.850;2023-07-31T05:31:39;6.7;;;3.4;;
51194;SDS011;37259;49.972;19.850;2023-07-31T05:32:39;6.7;;;3.4;;
51194;SDS011;37259;49.972;19.850;2023-07-31T05:33:39;6.7;;;3.4;;
51194;SDS011;37259;49.972;19.850;2023-07-31T05:34:39;6.7;;;3.4;;
51194;SDS011;37259;49.972;19.850;2023-07-31T05:35:39;6.7;;;3.4;;
51194;SDS011;37259;49.972;19.850;2023-07-31T05:36:39;6.7;;;3.4;;
51194;SDS011;37259;49.972;19.850;2023-07-31T05:37:39;6.7;;;3.4;;
51194;SDS011;37259;49.972;19.850;2023-07-31T05:38:39;6.7;;;3.4;;
51194;SDS011;37259;49.972;19.850;2023-07-31T05:39:39;6.7;;;3.4;;
51194;SDS011;37259;49.972;19.850;2023-07-31T05:40:40;6.7;;;3.4;;
51194;SDS011;37259;49.972;19.850;2023-07-31T05:41:39;6.7;;;3.4;;
51194;SDS011;37259;49.972;19.850;2023-07-31T05:42:39;6.7;;;3.4;;
51194;SDS011;37259;49.972;19.850;2023-07-31T05:43:39;6.7;;;3.4;;
51194;SDS011;37259;49.972;19.850;2023-07-31T05:44:39;6.7;;;3.4;;
51194;SDS011;37259;49.972;19.850;2023-07-31T05:45:39;6.7;;;3.4;;
51194;SDS011;37259;49.972;19.850;2023-07-31T05:46:39;6.7;;;3.4;;
51194;SDS011;37259;49.972;19.850;2023-07-31T05:47:39;6.7;;;3.4;;
51194;SDS011;37259;49.972;19.850;2023-07-31T05:48:39;6.7;;;3.4;;
51194;SDS011;37259;49.972;19.850;2023-07-31T05:49:39;6.7;;;3.4;;
51194;SDS011;37259;49.972;19.850;2023-07-31T05:50:39;6.7;;;3.4;;
51194;SDS011;37259;49.972;19.850;2023-07-31T05:51:39;6.7;;;3.4;;
51194;SDS011;37259;49.972;19.850;2023-07-31T05:52:39;6.7;;;3.4;;
51194;SDS011;37259;49.972;19.850;2023-07-31T05:53:39;6.7;;;3.4;;
51194;SDS011;37259;49.972;19.850;2023-07-31T05:54:39;6.7;;;3.4;;
51194;SDS011;37259;49.972;19.850;2023-07-31T05:55:39;5.5;;;3;;
51194;SDS011;37259;49.972;19.850;2023-07-31T05:56:39;5.5;;;3;;
51194;SDS011;37259;49.972;19.850;2023-07-31T05:57:39;5.5;;;3;;
51194;SDS011;37259;49.972;19.850;2023-07-31T05:58:39;5.5;;;3;;
51194;SDS011;37259;49.972;19.850;2023-07-31T05:59:39;5.5;;;3;;
51194;SDS011;37259;49.972;19.850;2023-07-31T06:00:39;5.5;;;3;;
51194;SDS011;37259;49.972;19.850;2023-07-31T06:01:39;5.5;;;3;;
51194;SDS011;37259;49.972;19.850;2023-07-31T06:02:40;5.5;;;3;;
51194;SDS011;37259;49.972;19.850;2023-07-31T06:03:39;5.5;;;3;;
51194;SDS011;37259;49.972;19.850;2023-07-31T06:04:39;5.5;;;3;;
51194;SDS011;37259;49.972;19.850;2023-07-31T06:05:39;5.5;;;3;;
51194;SDS011;37259;49.972;19.850;2023-07-31T06:06:39;5.5;;;3;;
51194;SDS011;37259;49.972;19.850;2023-07-31T06:07:39;5.5;;;3;;
51194;SDS011;37259;49.972;19.850;2023-07-31T06:08:39;5.5;;;3;;